Mountain Home, Idaho
Current Conditions -  °F | °C
As of 3:58 AM on Friday 31 Oct 2014 (Local Time) from KMUO Reporting Station
Scattered Clouds Scattered Clouds  
Wind Chill: 58°   Ceiling: Unl
Heat Index: 58°   Visibility: 10mi
Dew Point: 31°   Wind: 22mph
Humidity: 36%   Direction: 120°ESE
Pressure: 29.83"   Gusts: NA
Location:  43.13°N, 115.69°W
Report Text: KMUO 310958Z AUTO 12019KT 10SM SCT210 14/M01 A2983 RMK AO2 SLP085 T01431008
Loading
Personal Weather Stations






























Interactive Weather Map
Tropical Storm Tracking
New forecast layout! Learn more

10-Day Weather Forecast

Advertisements
Track Severe Weather on mobile